Historyczne dane pomiarowe

Dodano dane terminowe – wersja testowa.

Dane z okresu 1951-2019

Wersja bazy: 1.34 [2019-03-16, lista zmian], aktualizacja planowana na 2019-04-15

Dane meteo z obszaru Polski uzyskane na podstawie danych udostępnionych przez Instytut Meteorologii i Gospodarki Wodnej – Państwowy Instytut Badawczy.

 

Wybierz Datę:    

       

TemperaturaWilgotnośćWiatrCiśnienieOpadyŚniegCzas trwania zjawisk
 Stacja t tx tn tng RH VA  wxwx mslp ppp RRR   cm mm wxwxwxwxwxwxwx
1967-12-13 -7.3 -6.2 -9.7--- 8.0 1.3---- 0.8-- 9---------
1967-12-14 -6.1 -4.9 -7.3--- 8.0 2.0---- 0.0-- 9---------
1967-12-15 -4.1 -2.6 -7.7--- 7.7 4.3---- 0.0-- 9---------
1967-12-16 -3.7 -2.1 -4.6--- 8.0 8.3---- 1.4-- 8---------
1967-12-17 -1.5 0.6 -4.4--- 5.3 6.7---- 0.6-- 13---------
1967-12-18 -0.7 1.2 -2.3--- 6.7 4.7---- 1.7-- 12---------
1967-12-19 -4.4 -2.0-11.0--- 4.3 2.7---- 1.3-- 15---------
1967-12-20-10.3 -2.1-14.8--- 5.3 6.7---- 0.5-- 18---------
1967-12-21 -5.9 -5.6-15.0--- 8.0 5.0---- 1.2-- 20---------
1967-12-22 -6.0 -5.0 -7.8--- 8.0 5.7---- 6.0-- 23---------
1967-12-23 0.3 2.3 -5.3--- 8.0 5.3---- 8.8-- 27---------
1967-12-24 6.0 10.3 2.1--- 5.0 5.0---- 0.0-- 14---------
1967-12-25 3.2 5.8 2.2--- 7.7 2.0---- 4.5-- 11---------
1967-12-26 2.5 4.6 1.1--- 6.7 0.7---- 0.0-- 8---------
1967-12-27 -3.9 2.3 -8.1--- 5.3 2.0---- 0.2-- 5---------
1967-12-28-10.5 -3.9-13.9--- 0.0 0.3---- 0.0-- 5---------
1967-12-29 -4.8 -0.1-12.7--- 3.7 0.7---- 0.3-- 5---------
1967-12-30 -1.2 -0.1 -3.0--- 8.0 0.0---- 0.5-- 5---------
1967-12-31 -2.2 1.3 -7.2--- 2.7 1.0---- 0.0-- 7---------
1968-01-01 -1.1 0.2 -7.5--- 6.0 4.0---- 2.9-- 6---------
1968-01-02 -6.4 0.5-11.9--- 5.0 2.0---- 0.0-- 10---------
1968-01-03 -5.1 -2.3-13.6--- 7.7 2.0---- 0.1-- 10---------
1968-01-04-10.2 -1.6-16.8--- 4.0 0.3---- 1.2-- 10---------
1968-01-05 -5.9 -1.4-19.6--- 8.0 2.7---- 0.5-- 12---------
1968-01-06 -3.1 -0.6 -8.0--- 8.0 6.7---- 2.0-- 14---------
1968-01-07 -6.9 -0.9 -8.5--- 7.7 4.0---- 0.1-- 20---------
1968-01-08-13.9 -8.2-17.4--- 6.7 1.3---- 0.9-- 21---------
1968-01-09-10.6 -8.6-17.3--- 8.0 3.3---- 0.0-- 23---------
1968-01-10-22.3 -9.4-24.6--- 0.0 0.3---- 0.0-- 23---------
1968-01-11-16.2-11.5-30.1--- 2.7 4.0---- 0.0-- 23---------
263.6 ms

 

Źródłem pochodzenia danych jest Instytut Meteorologii i Gospodarki Wodnej – Państwowy Instytut Badawczy. Dane Instytutu Meteorologii i Gospodarki Wodnej – Państwowego Instytutu Badawczego zostały przetworzone.

Dane źródłowe można odnaleźć na stronie https://dane.imgw.pl